createdAt,value
2022-12-19T00:00:30.184Z,86.73
2022-12-19T00:02:57.683Z,81.90
2022-12-19T00:05:24.890Z,88.03
2022-12-19T00:07:53.856Z,86.78
2022-12-19T00:10:21.369Z,90.07
2022-12-19T00:12:50.066Z,98.03
2022-12-19T00:15:18.374Z,87.53
2022-12-19T00:17:45.590Z,90.18
2022-12-19T00:20:13.090Z,97.68
2022-12-19T00:22:45.043Z,89.25
2022-12-19T00:25:12.778Z,85.43
2022-12-19T00:27:41.532Z,89.15
2022-12-19T00:30:09.294Z,91.32
2022-12-19T00:32:40.234Z,97.03
2022-12-19T00:35:07.684Z,93.38
2022-12-19T00:37:35.276Z,96.82
2022-12-19T00:40:06.644Z,99.50
2022-12-19T00:42:33.791Z,96.65
2022-12-19T00:45:01.442Z,97.40
2022-12-19T00:47:28.895Z,93.47
2022-12-19T00:49:56.192Z,100.53
2022-12-19T00:52:23.473Z,97.05
2022-12-19T00:54:50.731Z,97.47
2022-12-19T00:57:20.212Z,93.35
2022-12-19T00:59:48.627Z,96.05
2022-12-19T01:03:37.997Z,99.43
2022-12-19T01:06:05.754Z,94.35
2022-12-19T01:08:33.311Z,103.10
2022-12-19T01:11:00.794Z,94.57
2022-12-19T01:13:30.724Z,89.75
2022-12-19T01:16:03.644Z,97.53
2022-12-19T01:18:31.176Z,104.28
2022-12-19T01:21:04.930Z,102.18
2022-12-19T01:23:34.314Z,101.88
2022-12-19T01:26:01.602Z,92.68
2022-12-19T01:28:29.742Z,95.35
2022-12-19T01:30:58.104Z,96.28
2022-12-19T01:33:25.405Z,96.43
2022-12-19T01:35:54.190Z,103.97
2022-12-19T01:38:21.804Z,95.65
2022-12-19T01:40:57.745Z,99.18
2022-12-19T01:43:29.700Z,99.45
2022-12-19T01:46:03.593Z,97.45
2022-12-19T01:48:38.702Z,94.18
2022-12-19T01:51:20.504Z,87.18
2022-12-19T01:53:54.711Z,99.00
2022-12-19T01:56:29.409Z,109.13
2022-12-19T01:59:05.850Z,100.45
2022-12-19T02:01:51.049Z,106.20
2022-12-19T02:04:32.467Z,103.35
2022-12-19T02:07:14.992Z,100.05
2022-12-19T02:09:52.428Z,98.88
2022-12-19T02:12:28.857Z,99.78
2022-12-19T02:15:03.263Z,108.25
2022-12-19T02:17:54.762Z,98.38
2022-12-19T02:20:54.229Z,102.97
2022-12-19T02:24:02.337Z,98.82
2022-12-19T02:27:07.080Z,102.60
2022-12-19T02:29:41.509Z,96.90
2022-12-19T02:32:36.235Z,92.20
2022-12-19T02:35:22.991Z,97.40
2022-12-19T02:38:19.607Z,99.28
2022-12-19T02:40:55.647Z,101.18
2022-12-19T02:43:30.800Z,93.95
2022-12-19T02:46:00.000Z,92.38
2022-12-19T02:48:28.519Z,93.22
2022-12-19T02:50:56.000Z,105.78
2022-12-19T02:53:24.840Z,103.57
2022-12-19T02:56:50.669Z,108.32
2022-12-19T02:59:33.380Z,107.22
2022-12-19T03:02:07.711Z,94.40
2022-12-19T03:04:59.723Z,98.35
2022-12-19T03:07:49.917Z,91.95
2022-12-19T03:10:48.643Z,91.70
2022-12-19T03:13:25.054Z,89.72
2022-12-19T03:15:54.148Z,92.22
2022-12-19T03:18:21.613Z,90.47
2022-12-19T03:21:26.201Z,98.25
2022-12-19T03:23:55.669Z,95.93
2022-12-19T03:26:27.740Z,94.70
2022-12-19T03:29:11.639Z,95.78
2022-12-19T03:31:40.248Z,84.35
2022-12-19T03:34:36.914Z,85.82
2022-12-19T03:37:07.371Z,91.50
2022-12-19T03:39:35.642Z,94.82
2022-12-19T03:42:25.782Z,89.10
2022-12-19T03:44:55.795Z,92.15
2022-12-19T03:47:35.547Z,90.13
2022-12-19T03:50:03.065Z,91.78
2022-12-19T03:53:09.472Z,86.75
2022-12-19T03:55:49.660Z,89.90
2022-12-19T03:58:30.305Z,89.13
2022-12-19T04:03:25.640Z,76.28
2022-12-19T04:05:54.503Z,93.50
2022-12-19T04:08:23.920Z,84.35
2022-12-19T04:10:56.395Z,92.18
2022-12-19T04:13:38.972Z,77.72
2022-12-19T04:16:19.835Z,90.95
2022-12-19T04:18:58.367Z,88.47
2022-12-19T04:21:35.354Z,82.32
2022-12-19T04:24:12.807Z,82.85
2022-12-19T04:26:44.251Z,90.82
2022-12-19T04:29:13.865Z,83.22
2022-12-19T04:31:41.411Z,83.03
2022-12-19T04:34:09.025Z,81.80
2022-12-19T04:36:36.489Z,78.95
2022-12-19T04:39:04.489Z,78.50
2022-12-19T04:41:31.938Z,77.32
2022-12-19T04:43:59.085Z,80.82
2022-12-19T04:46:26.708Z,79.80
2022-12-19T04:48:54.286Z,86.43
2022-12-19T04:51:21.744Z,79.22
2022-12-19T04:53:50.043Z,85.57
2022-12-19T04:56:17.398Z,79.00
2022-12-19T04:58:45.520Z,80.80
2022-12-19T05:04:04.754Z,79.93
2022-12-19T05:06:33.017Z,77.63
2022-12-19T05:09:00.751Z,81.70
2022-12-19T05:11:28.455Z,78.13
2022-12-19T05:13:55.866Z,78.55
2022-12-19T05:16:23.838Z,80.28
2022-12-19T05:18:51.251Z,75.28
2022-12-19T05:21:19.406Z,79.32
2022-12-19T05:23:47.081Z,78.03
2022-12-19T05:26:15.478Z,81.28
2022-12-19T05:28:42.901Z,65.97
2022-12-19T05:31:11.912Z,86.15
2022-12-19T05:33:39.920Z,79.63
2022-12-19T05:36:08.568Z,72.75
2022-12-19T05:38:36.318Z,69.15
2022-12-19T05:41:08.185Z,75.53
2022-12-19T05:43:36.847Z,70.65
2022-12-19T05:46:08.147Z,69.40
2022-12-19T05:48:35.944Z,63.88
2022-12-19T05:51:03.555Z,67.70
2022-12-19T05:53:31.094Z,66.55
2022-12-19T05:56:05.884Z,66.18
2022-12-19T05:58:33.727Z,60.58
2022-12-19T06:01:06.174Z,61.28
2022-12-19T06:03:33.634Z,64.80
2022-12-19T06:06:05.172Z,67.18
2022-12-19T06:08:32.920Z,57.47
2022-12-19T06:11:01.363Z,63.33
2022-12-19T06:13:29.714Z,60.10
2022-12-19T06:16:00.985Z,61.58
2022-12-19T06:18:29.203Z,56.22
2022-12-19T06:20:57.953Z,56.65
2022-12-19T06:23:25.770Z,55.95
2022-12-19T06:25:53.258Z,55.90
2022-12-19T06:28:20.954Z,51.70
2022-12-19T06:30:49.564Z,56.38
2022-12-19T06:33:18.383Z,55.33
2022-12-19T06:35:46.420Z,51.28
2022-12-19T06:38:14.362Z,46.58
2022-12-19T06:41:02.352Z,48.60
2022-12-19T06:43:30.343Z,49.08
2022-12-19T06:45:58.582Z,41.63
2022-12-19T06:48:27.767Z,46.33
2022-12-19T06:50:55.813Z,48.70
2022-12-19T06:53:24.072Z,36.60
2022-12-19T06:55:53.223Z,45.65
2022-12-19T06:58:24.208Z,40.85
2022-12-19T07:00:52.714Z,48.67
2022-12-19T07:03:24.704Z,44.67
2022-12-19T07:05:53.419Z,34.70
2022-12-19T07:08:21.170Z,35.50
2022-12-19T07:10:49.722Z,37.53
2022-12-19T07:13:18.131Z,37.15
2022-12-19T07:15:47.401Z,34.58
2022-12-19T07:18:15.635Z,33.37
2022-12-19T07:20:45.337Z,34.72
2022-12-19T07:23:15.600Z,41.00
2022-12-19T07:25:44.047Z,30.13
2022-12-19T07:28:11.674Z,30.55
2022-12-19T07:30:39.298Z,29.48
2022-12-19T07:33:11.005Z,30.45
2022-12-19T07:35:40.487Z,27.90
2022-12-19T07:38:09.025Z,29.38
2022-12-19T07:40:36.908Z,27.45
2022-12-19T07:43:05.661Z,24.70
2022-12-19T07:45:34.510Z,29.17
2022-12-19T07:48:03.908Z,25.58
2022-12-19T07:50:31.916Z,29.08
2022-12-19T07:52:59.795Z,24.40
2022-12-19T07:55:27.876Z,24.13
2022-12-19T07:57:56.103Z,23.27
2022-12-19T08:00:25.468Z,25.75
2022-12-19T08:02:53.550Z,23.55
2022-12-19T08:05:24.591Z,24.10
2022-12-19T08:07:57.085Z,21.90
2022-12-19T08:10:27.204Z,27.77
2022-12-19T08:12:55.139Z,25.05
2022-12-19T08:15:22.979Z,18.70
2022-12-19T08:17:50.627Z,21.20
2022-12-19T08:20:19.212Z,24.05
2022-12-19T08:22:47.070Z,24.85
2022-12-19T08:25:15.767Z,18.52
2022-12-19T08:27:44.418Z,19.60
2022-12-19T08:30:14.074Z,17.30
2022-12-19T08:32:41.583Z,19.67
2022-12-19T08:35:09.455Z,23.30
2022-12-19T08:37:38.040Z,18.08
2022-12-19T08:40:05.798Z,19.63
2022-12-19T08:42:33.778Z,16.58
2022-12-19T08:45:01.443Z,22.30
2022-12-19T08:47:29.296Z,22.08
2022-12-19T08:49:59.201Z,21.20
2022-12-19T08:52:26.908Z,17.20
2022-12-19T08:54:55.174Z,16.73
2022-12-19T08:57:22.981Z,17.90
2022-12-19T08:59:51.809Z,20.70
2022-12-19T09:02:20.876Z,18.23
2022-12-19T09:06:00.590Z,19.27
2022-12-19T09:07:38.511Z,20.55
2022-12-19T09:10:07.440Z,25.00
2022-12-19T09:12:36.628Z,19.50
2022-12-19T09:15:04.615Z,20.92
2022-12-19T09:17:32.148Z,23.67
2022-12-19T09:20:00.151Z,18.15
2022-12-19T09:22:29.375Z,22.08
2022-12-19T09:24:57.193Z,16.93
2022-12-19T09:27:24.968Z,21.75
2022-12-19T09:29:52.851Z,18.95
2022-12-19T09:32:20.483Z,20.27
2022-12-19T09:34:49.704Z,23.83
2022-12-19T09:37:19.419Z,18.48
2022-12-19T09:39:48.424Z,18.93
2022-12-19T09:42:22.879Z,16.15
2022-12-19T09:44:54.109Z,17.08
2022-12-19T09:47:25.101Z,19.50
2022-12-19T09:49:55.232Z,18.98
2022-12-19T09:52:33.146Z,21.27
2022-12-19T09:55:13.733Z,17.15
2022-12-19T09:58:01.557Z,18.77
2022-12-19T10:00:35.231Z,15.35
2022-12-19T10:03:06.352Z,15.05
2022-12-19T10:07:00.745Z,14.57
2022-12-19T10:09:26.343Z,19.63
2022-12-19T10:14:20.644Z,18.30
2022-12-19T10:17:24.256Z,22.90
2022-12-19T10:20:14.431Z,15.63
2022-12-19T10:22:45.116Z,18.17
2022-12-19T10:25:25.989Z,13.45
2022-12-19T10:28:12.278Z,22.23
2022-12-19T10:30:45.146Z,15.63
2022-12-19T10:33:20.091Z,17.90
2022-12-19T10:35:53.498Z,14.45
2022-12-19T10:38:29.780Z,16.33
2022-12-19T10:41:20.394Z,15.18
2022-12-19T10:44:10.177Z,16.37
2022-12-19T10:46:43.450Z,14.20
2022-12-19T10:49:21.846Z,17.67
2022-12-19T10:51:57.366Z,16.98
2022-12-19T10:54:33.357Z,14.75
2022-12-19T10:57:19.855Z,14.38
2022-12-19T11:00:11.638Z,14.25
2022-12-19T11:02:39.631Z,12.32
2022-12-19T11:05:20.974Z,14.25
2022-12-19T11:08:12.054Z,12.98
2022-12-19T11:14:40.940Z,11.85
2022-12-19T11:19:27.880Z,13.82
2022-12-19T11:19:41.890Z,11.85
2022-12-19T11:27:44.033Z,12.43
2022-12-19T11:29:33.804Z,13.75
2022-12-19T11:30:43.365Z,15.13
2022-12-19T11:30:48.851Z,14.75
2022-12-19T11:34:14.261Z,15.25
2022-12-19T11:36:50.113Z,17.73
2022-12-19T11:39:38.611Z,11.35
2022-12-19T11:42:27.431Z,17.05
2022-12-19T11:45:03.885Z,11.95
2022-12-19T11:47:40.659Z,16.20
2022-12-19T11:50:14.082Z,17.13
2022-12-19T11:53:04.149Z,14.90
2022-12-19T11:55:49.217Z,16.63
2022-12-19T11:58:18.257Z,12.85
2022-12-19T12:01:06.455Z,12.43
2022-12-19T12:03:34.451Z,12.70
2022-12-19T12:06:05.671Z,10.40
2022-12-19T12:11:33.606Z,10.88
2022-12-19T12:17:26.956Z,12.68
2022-12-19T12:21:50.104Z,9.05
2022-12-19T12:31:13.553Z,10.85
2022-12-19T12:31:21.025Z,11.45
2022-12-19T12:31:38.460Z,12.85
2022-12-19T12:31:44.957Z,9.02
2022-12-19T12:32:06.159Z,8.67
2022-12-19T12:35:40.506Z,10.98
2022-12-19T12:35:40.780Z,13.18
2022-12-19T12:40:46.074Z,7.90
2022-12-19T12:43:25.679Z,14.20
2022-12-19T12:45:53.376Z,12.38
2022-12-19T12:48:21.385Z,11.15
2022-12-19T12:50:55.005Z,10.80
2022-12-19T12:53:27.467Z,8.82
2022-12-19T12:55:57.501Z,9.32
2022-12-19T12:58:43.890Z,8.00
2022-12-19T13:01:11.625Z,10.00
2022-12-19T13:03:41.744Z,10.65
2022-12-19T13:06:32.830Z,11.95
2022-12-19T13:09:09.240Z,9.07
2022-12-19T13:12:00.449Z,8.35
2022-12-19T13:14:37.316Z,10.23
2022-12-19T13:17:08.919Z,9.05
2022-12-19T13:19:37.629Z,9.48
2022-12-19T13:22:05.192Z,8.25
2022-12-19T13:24:50.023Z,8.00
2022-12-19T13:27:20.603Z,10.35
2022-12-19T13:30:01.030Z,9.60
2022-12-19T13:32:34.580Z,7.93
2022-12-19T13:35:43.475Z,10.23
2022-12-19T13:39:48.340Z,8.60
2022-12-19T13:40:52.192Z,7.80
2022-12-19T13:43:41.240Z,10.52
2022-12-19T13:46:27.364Z,10.55
2022-12-19T13:48:57.436Z,6.63
2022-12-19T13:51:25.495Z,7.38
2022-12-19T13:53:59.284Z,7.65
2022-12-19T13:56:31.225Z,11.02
2022-12-19T14:01:33.920Z,6.35
2022-12-19T14:04:08.389Z,6.95
2022-12-19T14:06:45.179Z,6.55
2022-12-19T14:11:28.483Z,6.93
2022-12-19T14:13:48.218Z,7.70
2022-12-19T14:15:37.485Z,9.77
2022-12-19T14:18:44.629Z,11.35
2022-12-19T14:22:03.939Z,15.85
2022-12-19T14:24:21.247Z,9.77
2022-12-19T14:28:22.352Z,9.68
2022-12-19T14:30:28.525Z,7.68
2022-12-19T14:33:44.185Z,12.13
2022-12-19T14:36:12.144Z,9.27
2022-12-19T14:39:22.152Z,13.52
2022-12-19T14:42:00.704Z,13.98
2022-12-19T14:52:35.127Z,8.68
2022-12-19T14:54:07.607Z,12.32
2022-12-19T14:54:09.465Z,12.30
2022-12-19T14:54:29.758Z,9.20
2022-12-19T14:56:33.652Z,11.93
2022-12-19T14:59:01.390Z,12.25
2022-12-19T15:01:30.852Z,7.70
2022-12-19T15:04:47.763Z,7.38
2022-12-19T15:07:09.396Z,12.98
2022-12-19T15:11:01.040Z,8.90
2022-12-19T15:14:52.303Z,7.75
2022-12-19T15:16:01.543Z,9.05
2022-12-19T15:18:29.214Z,7.78
2022-12-19T15:20:59.287Z,7.95
2022-12-19T15:23:27.212Z,7.13
2022-12-19T15:26:05.103Z,8.63
2022-12-19T15:28:44.545Z,6.88
2022-12-19T15:31:25.272Z,7.75
2022-12-19T15:34:32.188Z,11.80
2022-12-19T15:36:40.723Z,8.93
2022-12-19T15:39:08.537Z,8.55
2022-12-19T15:41:36.192Z,8.52
2022-12-19T15:44:10.107Z,7.47
2022-12-19T15:46:42.994Z,10.45
2022-12-19T15:49:18.046Z,9.05
2022-12-19T15:51:45.840Z,9.37
2022-12-19T15:57:04.978Z,7.80
2022-12-19T15:59:38.012Z,7.82
2022-12-19T16:02:24.746Z,9.32
2022-12-19T16:04:56.884Z,6.43
2022-12-19T16:07:31.095Z,6.80
2022-12-19T16:09:58.508Z,8.45
2022-12-19T16:12:30.912Z,7.45
2022-12-19T16:14:59.746Z,8.10
2022-12-19T16:17:28.089Z,7.72
2022-12-19T16:19:55.572Z,6.40
2022-12-19T16:22:30.682Z,6.78
2022-12-19T16:24:58.271Z,7.35
2022-12-19T16:27:30.079Z,9.27
2022-12-19T16:29:59.880Z,6.88
2022-12-19T16:32:27.314Z,8.55
2022-12-19T16:34:55.778Z,6.43
2022-12-19T16:37:28.466Z,5.78
2022-12-19T16:39:59.733Z,6.50
2022-12-19T16:42:28.781Z,8.85
2022-12-19T16:44:56.866Z,5.68
2022-12-19T16:47:24.373Z,5.88
2022-12-19T16:49:52.232Z,7.43
2022-12-19T16:52:20.603Z,6.82
2022-12-19T16:54:49.140Z,6.85
2022-12-19T16:57:20.195Z,8.50
2022-12-19T16:59:48.521Z,7.45
2022-12-19T17:02:36.321Z,7.45
2022-12-19T17:05:04.815Z,9.65
2022-12-19T17:07:32.615Z,10.65
2022-12-19T17:10:00.277Z,6.50
2022-12-19T17:12:28.191Z,5.60
2022-12-19T17:14:56.382Z,9.13
2022-12-19T17:17:24.265Z,4.90
2022-12-19T17:19:52.413Z,6.45
2022-12-19T17:22:21.489Z,5.32
2022-12-19T17:24:50.235Z,6.05
2022-12-19T17:27:19.310Z,9.65
2022-12-19T17:29:47.991Z,8.85
2022-12-19T17:32:23.497Z,8.88
2022-12-19T17:34:52.966Z,7.43
2022-12-19T17:37:21.542Z,7.30
2022-12-19T17:39:49.411Z,6.10
2022-12-19T17:42:19.876Z,14.77
2022-12-19T17:47:18.130Z,9.27
2022-12-19T17:49:45.939Z,8.90
2022-12-19T17:52:19.113Z,6.65
2022-12-19T17:54:46.837Z,10.38
2022-12-19T17:57:15.581Z,7.55
2022-12-19T17:59:43.391Z,9.63
2022-12-19T18:02:31.863Z,7.47
2022-12-19T18:05:01.539Z,8.80
2022-12-19T18:07:29.177Z,17.63
2022-12-19T18:09:56.736Z,8.70
2022-12-19T18:12:24.896Z,8.35
2022-12-19T18:14:52.446Z,6.38
2022-12-19T18:17:26.771Z,9.48
2022-12-19T18:19:54.369Z,6.28
2022-12-19T18:22:22.032Z,8.40
2022-12-19T18:24:51.782Z,9.50
2022-12-19T18:27:20.060Z,7.18
2022-12-19T18:29:49.799Z,7.20
2022-12-19T18:32:19.526Z,7.75
2022-12-19T18:34:47.384Z,7.73
2022-12-19T18:37:16.037Z,10.23
2022-12-19T18:39:43.635Z,9.30
2022-12-19T18:42:24.222Z,6.13
2022-12-19T18:44:53.291Z,5.40
2022-12-19T18:47:22.167Z,4.93
2022-12-19T18:49:52.514Z,8.48
2022-12-19T18:52:21.948Z,8.82
2022-12-19T18:54:50.300Z,5.28
2022-12-19T18:57:18.184Z,9.70
2022-12-19T18:59:46.182Z,7.13
2022-12-19T19:02:26.262Z,7.22
2022-12-19T19:04:57.507Z,7.13
2022-12-19T19:07:28.711Z,11.25
2022-12-19T19:09:56.200Z,7.43
2022-12-19T19:12:49.656Z,8.73
2022-12-19T19:15:19.941Z,5.22
2022-12-19T19:17:50.293Z,6.68
2022-12-19T19:20:19.752Z,5.80
2022-12-19T19:22:48.710Z,9.07
2022-12-19T19:25:16.757Z,13.93
2022-12-19T19:27:44.418Z,6.88
2022-12-19T19:30:12.141Z,7.05
2022-12-19T19:32:41.735Z,5.30
2022-12-19T19:35:09.975Z,6.43
2022-12-19T19:37:38.378Z,9.88
2022-12-19T19:40:06.350Z,7.90
2022-12-19T19:42:33.795Z,9.43
2022-12-19T19:45:01.456Z,7.97
2022-12-19T19:47:32.735Z,8.35
2022-12-19T19:50:00.628Z,10.27
2022-12-19T19:52:28.153Z,9.23
2022-12-19T19:55:05.463Z,7.78
2022-12-19T19:57:33.829Z,5.03
2022-12-19T20:00:01.693Z,3.95
2022-12-19T20:02:29.622Z,12.02
2022-12-19T20:04:57.210Z,9.77
2022-12-19T20:07:24.834Z,5.40
2022-12-19T20:09:53.340Z,8.75
2022-12-19T20:12:26.111Z,7.20
2022-12-19T20:14:57.318Z,8.40
2022-12-19T20:17:25.363Z,10.57
2022-12-19T20:19:53.146Z,5.15
2022-12-19T20:22:21.759Z,6.03
2022-12-19T20:24:50.564Z,5.40
2022-12-19T20:27:21.524Z,7.63
2022-12-19T20:29:50.478Z,6.13
2022-12-19T20:32:19.013Z,7.53
2022-12-19T20:34:46.821Z,7.13
2022-12-19T20:37:15.279Z,6.03
2022-12-19T20:39:43.744Z,7.65
2022-12-19T20:42:11.230Z,8.85
2022-12-19T20:44:39.024Z,9.98
2022-12-19T20:47:06.810Z,7.95
2022-12-19T20:49:34.267Z,12.13
2022-12-19T20:52:02.644Z,10.75
2022-12-19T20:54:30.931Z,5.32
2022-12-19T20:56:58.465Z,9.30
2022-12-19T20:59:25.940Z,5.55
2022-12-19T21:01:55.505Z,8.40
2022-12-19T21:04:23.382Z,6.90
2022-12-19T21:06:51.529Z,9.45
2022-12-19T21:09:22.418Z,9.38
2022-12-19T21:11:50.411Z,9.98
2022-12-19T21:14:19.311Z,5.55
2022-12-19T21:16:52.650Z,8.25
2022-12-19T21:19:20.444Z,5.97
2022-12-19T21:21:50.747Z,10.27
2022-12-19T21:24:19.225Z,9.75
2022-12-19T21:26:57.840Z,10.43
2022-12-19T21:29:26.948Z,7.85
2022-12-19T21:31:55.097Z,9.85
2022-12-19T21:34:23.082Z,8.85
2022-12-19T21:36:50.849Z,7.25
2022-12-19T21:39:25.519Z,8.93
2022-12-19T21:41:53.231Z,6.40
2022-12-19T21:44:21.509Z,8.50
2022-12-19T21:46:49.625Z,7.75
2022-12-19T21:49:23.324Z,8.45
2022-12-19T21:51:50.967Z,8.75
2022-12-19T21:54:22.062Z,9.18
2022-12-19T21:56:50.181Z,9.45
2022-12-19T21:59:21.492Z,9.48
2022-12-19T22:01:49.625Z,8.63
2022-12-19T22:04:21.113Z,7.68
2022-12-19T22:06:51.489Z,7.85
2022-12-19T22:09:21.545Z,6.72
2022-12-19T22:11:50.607Z,8.63
2022-12-19T22:14:21.986Z,8.65
2022-12-19T22:16:50.864Z,7.38
2022-12-19T22:19:19.204Z,6.97
2022-12-19T22:21:48.449Z,5.00
2022-12-19T22:24:18.027Z,6.93
2022-12-19T22:26:46.290Z,5.00
2022-12-19T22:29:18.046Z,7.40
2022-12-19T22:31:46.844Z,11.32
2022-12-19T22:34:18.292Z,9.07
2022-12-19T22:36:46.639Z,7.07
2022-12-19T22:39:15.040Z,5.10
2022-12-19T22:41:43.063Z,7.75
2022-12-19T22:44:16.355Z,7.55
2022-12-19T22:46:44.263Z,10.40
2022-12-19T22:49:12.406Z,8.07
2022-12-19T22:51:40.043Z,12.20
2022-12-19T22:54:07.651Z,6.45
2022-12-19T22:56:35.928Z,9.60
2022-12-19T22:59:05.669Z,8.15
2022-12-19T23:01:41.190Z,5.97
2022-12-19T23:04:10.230Z,11.80
2022-12-19T23:06:38.593Z,7.75
2022-12-19T23:09:07.196Z,9.27
2022-12-19T23:11:36.360Z,11.85
2022-12-19T23:14:04.832Z,5.97
2022-12-19T23:16:32.741Z,7.95
2022-12-19T23:19:00.295Z,8.10
2022-12-19T23:21:28.422Z,9.02
2022-12-19T23:23:56.129Z,5.72
2022-12-19T23:26:30.754Z,14.75
2022-12-19T23:28:59.839Z,6.75
2022-12-19T23:31:28.303Z,12.13
2022-12-19T23:33:56.561Z,8.63
2022-12-19T23:37:00.524Z,8.32
2022-12-19T23:39:12.907Z,11.82
2022-12-19T23:41:40.944Z,7.97
2022-12-19T23:44:09.111Z,6.40
2022-12-19T23:46:37.293Z,7.97
2022-12-19T23:49:05.356Z,6.22
2022-12-19T23:51:32.764Z,7.63
2022-12-19T23:54:00.404Z,6.97
2022-12-19T23:56:29.303Z,9.57
2022-12-19T23:58:57.332Z,5.93
